createdAt,value
2022-11-22T00:01:21.776Z,16.90
2022-11-22T00:03:48.451Z,16.90
2022-11-22T00:06:15.753Z,16.90
2022-11-22T00:08:42.493Z,16.90
2022-11-22T00:11:09.229Z,16.90
2022-11-22T00:13:35.906Z,16.90
2022-11-22T00:16:03.420Z,16.90
2022-11-22T00:18:30.404Z,16.90
2022-11-22T00:20:57.114Z,16.90
2022-11-22T00:23:23.825Z,16.90
2022-11-22T00:25:50.604Z,16.90
2022-11-22T00:28:17.277Z,16.90
2022-11-22T00:30:43.980Z,16.90
2022-11-22T00:33:10.674Z,16.90
2022-11-22T00:35:37.986Z,16.90
2022-11-22T00:38:04.678Z,16.90
2022-11-22T00:40:31.361Z,16.90
2022-11-22T00:42:58.035Z,16.80
2022-11-22T00:45:24.836Z,16.80
2022-11-22T00:47:51.560Z,16.90
2022-11-22T00:50:18.305Z,16.90
2022-11-22T00:52:45.094Z,16.90
2022-11-22T00:55:11.760Z,16.80
2022-11-22T00:57:38.522Z,16.80
2022-11-22T01:00:06.460Z,16.80
2022-11-22T01:02:33.170Z,16.90
2022-11-22T01:04:59.865Z,16.90
2022-11-22T01:07:26.584Z,16.80
2022-11-22T01:09:53.354Z,16.80
2022-11-22T01:12:20.033Z,16.80
2022-11-22T01:14:46.739Z,16.80
2022-11-22T01:17:13.434Z,16.80
2022-11-22T01:19:40.164Z,16.90
2022-11-22T01:22:06.896Z,16.80
2022-11-22T01:24:33.590Z,16.80
2022-11-22T01:27:00.276Z,16.80
2022-11-22T01:29:27.138Z,16.80
2022-11-22T01:31:54.148Z,16.80
2022-11-22T01:34:20.825Z,16.80
2022-11-22T01:36:47.541Z,16.80
2022-11-22T01:39:15.206Z,16.80
2022-11-22T01:41:41.872Z,16.80
2022-11-22T01:44:37.993Z,16.80
2022-11-22T01:47:15.054Z,16.80
2022-11-22T01:49:55.337Z,16.80
2022-11-22T01:52:24.599Z,16.80
2022-11-22T01:54:54.916Z,16.80
2022-11-22T01:57:24.570Z,16.80
2022-11-22T01:59:54.077Z,16.80
2022-11-22T02:02:21.177Z,16.80
2022-11-22T02:04:48.939Z,16.80
2022-11-22T02:07:19.694Z,16.80
2022-11-22T02:09:48.003Z,16.90
2022-11-22T02:12:15.756Z,16.80
2022-11-22T02:14:43.306Z,16.80
2022-11-22T02:17:10.019Z,16.80
2022-11-22T02:19:44.123Z,16.80
2022-11-22T02:22:31.155Z,16.80
2022-11-22T02:25:02.257Z,16.80
2022-11-22T02:27:28.926Z,16.80
2022-11-22T02:29:55.566Z,16.80
2022-11-22T02:32:22.236Z,16.80
2022-11-22T02:34:49.973Z,16.80
2022-11-22T02:37:25.357Z,16.80
2022-11-22T02:39:54.569Z,16.80
2022-11-22T02:42:21.557Z,16.80
2022-11-22T02:44:48.229Z,16.80
2022-11-22T02:47:14.944Z,16.80
2022-11-22T02:49:42.535Z,16.80
2022-11-22T02:52:09.235Z,16.80
2022-11-22T02:54:35.900Z,16.90
2022-11-22T02:57:03.334Z,16.90
2022-11-22T02:59:30.077Z,17.00
2022-11-22T03:02:02.848Z,17.00
2022-11-22T03:04:30.010Z,17.00
2022-11-22T03:06:58.145Z,17.00
2022-11-22T03:09:25.511Z,17.00
2022-11-22T03:11:52.722Z,17.00
2022-11-22T03:14:19.843Z,17.00
2022-11-22T03:16:47.126Z,16.90
2022-11-22T03:19:14.139Z,16.90
2022-11-22T03:21:41.939Z,16.90
2022-11-22T03:24:09.531Z,16.90
2022-11-22T03:26:36.617Z,16.90
2022-11-22T03:29:03.715Z,16.90
2022-11-22T03:31:30.403Z,16.90
2022-11-22T03:33:57.211Z,16.90
2022-11-22T03:36:23.903Z,16.90
2022-11-22T03:38:50.709Z,16.80
2022-11-22T03:41:17.501Z,16.90
2022-11-22T03:43:44.180Z,16.90
2022-11-22T03:46:14.692Z,16.80
2022-11-22T03:48:41.358Z,16.80
2022-11-22T03:51:08.187Z,16.80
2022-11-22T03:53:34.902Z,16.80
2022-11-22T03:56:01.614Z,16.80
2022-11-22T03:58:28.445Z,16.80
2022-11-22T04:00:56.307Z,16.80
2022-11-22T04:03:23.105Z,16.80
2022-11-22T04:05:49.791Z,16.80
2022-11-22T04:08:16.538Z,16.80
2022-11-22T04:10:43.217Z,16.80
2022-11-22T04:13:10.015Z,16.80
2022-11-22T04:15:36.837Z,16.80
2022-11-22T04:18:03.596Z,16.80
2022-11-22T04:20:48.909Z,16.80
2022-11-22T04:23:16.949Z,16.80
2022-11-22T04:25:45.647Z,16.80
2022-11-22T04:28:12.931Z,16.70
2022-11-22T04:31:18.093Z,16.80
2022-11-22T04:33:44.784Z,16.80
2022-11-22T04:36:13.449Z,16.80
2022-11-22T04:38:40.333Z,16.80
2022-11-22T04:41:07.082Z,16.80
2022-11-22T04:43:52.574Z,16.70
2022-11-22T04:46:19.264Z,16.80
2022-11-22T04:48:45.966Z,16.70
2022-11-22T04:51:32.840Z,16.70
2022-11-22T04:53:59.483Z,16.70
2022-11-22T04:56:26.242Z,16.70
2022-11-22T04:58:52.915Z,16.70
2022-11-22T05:01:19.682Z,16.70
2022-11-22T05:03:46.414Z,16.70
2022-11-22T05:06:13.377Z,16.70
2022-11-22T05:08:40.185Z,16.70
2022-11-22T05:11:06.890Z,16.70
2022-11-22T05:13:35.159Z,16.70
2022-11-22T05:16:02.563Z,16.70
2022-11-22T05:18:29.419Z,16.70
2022-11-22T05:20:56.333Z,16.70
2022-11-22T05:23:41.909Z,16.70
2022-11-22T05:26:09.377Z,16.70
2022-11-22T05:28:36.749Z,16.70
2022-11-22T05:31:10.954Z,16.70
2022-11-22T05:33:38.963Z,16.70
2022-11-22T05:36:06.346Z,16.70
2022-11-22T05:38:35.458Z,16.70
2022-11-22T05:41:03.318Z,16.70
2022-11-22T05:43:30.340Z,16.70
2022-11-22T05:45:57.005Z,16.70
2022-11-22T05:48:23.668Z,16.70
2022-11-22T05:50:50.406Z,16.70
2022-11-22T05:53:17.180Z,16.70
2022-11-22T05:55:43.845Z,16.70
2022-11-22T05:58:10.585Z,16.70
2022-11-22T06:00:37.351Z,16.70
2022-11-22T06:03:04.372Z,16.70
2022-11-22T06:05:31.044Z,16.80
2022-11-22T06:07:59.351Z,16.80
2022-11-22T06:10:26.732Z,16.90
2022-11-22T06:12:53.525Z,16.90
2022-11-22T06:15:20.461Z,16.90
2022-11-22T06:17:47.258Z,16.90
2022-11-22T06:20:14.104Z,16.90
2022-11-22T06:22:40.827Z,16.90
2022-11-22T06:25:07.849Z,16.90
2022-11-22T06:27:34.528Z,16.90
2022-11-22T06:30:01.266Z,16.90
2022-11-22T06:32:27.946Z,16.80
2022-11-22T06:34:54.658Z,16.80
2022-11-22T06:37:21.629Z,16.80
2022-11-22T06:39:48.423Z,16.80
2022-11-22T06:42:15.081Z,16.80
2022-11-22T06:44:41.841Z,16.80
2022-11-22T06:47:10.280Z,16.80
2022-11-22T06:49:36.958Z,16.80
2022-11-22T06:52:03.718Z,16.80
2022-11-22T06:54:30.507Z,16.80
2022-11-22T06:56:57.173Z,16.80
2022-11-22T06:59:23.876Z,16.70
2022-11-22T07:01:50.711Z,16.80
2022-11-22T07:04:17.640Z,16.80
2022-11-22T07:06:44.503Z,16.80
2022-11-22T07:09:11.465Z,16.70
2022-11-22T07:11:39.219Z,16.70
2022-11-22T07:14:08.811Z,16.70
2022-11-22T07:16:36.905Z,16.80
2022-11-22T07:19:03.841Z,16.80
2022-11-22T07:21:30.731Z,16.70
2022-11-22T07:23:57.445Z,16.70
2022-11-22T07:26:24.969Z,16.70
2022-11-22T07:28:51.859Z,16.70
2022-11-22T07:31:18.829Z,16.70
2022-11-22T07:33:45.574Z,16.70
2022-11-22T07:36:22.132Z,16.70
2022-11-22T07:38:49.283Z,16.70
2022-11-22T07:41:16.766Z,16.70
2022-11-22T07:43:43.943Z,16.70
2022-11-22T07:46:31.360Z,16.70
2022-11-22T07:48:58.872Z,16.70
2022-11-22T07:51:25.656Z,16.70
2022-11-22T07:53:52.418Z,16.70
2022-11-22T07:56:19.365Z,16.70
2022-11-22T07:58:46.129Z,16.70
2022-11-22T08:01:14.562Z,16.70
2022-11-22T08:03:41.514Z,16.60
2022-11-22T08:06:08.996Z,16.70
2022-11-22T08:08:36.058Z,16.70
2022-11-22T08:11:03.164Z,16.70
2022-11-22T08:13:30.537Z,16.60
2022-11-22T08:16:05.130Z,16.60
2022-11-22T08:18:32.565Z,16.70
2022-11-22T08:21:07.192Z,16.70
2022-11-22T08:23:34.110Z,16.70
2022-11-22T08:26:00.810Z,16.70
2022-11-22T08:28:27.698Z,16.70
2022-11-22T08:31:10.475Z,16.70
2022-11-22T08:33:37.211Z,16.10
2022-11-22T08:36:04.358Z,16.80
2022-11-22T08:38:31.129Z,16.90
2022-11-22T08:40:57.891Z,16.90
2022-11-22T08:43:25.002Z,16.90
2022-11-22T08:45:56.578Z,16.90
2022-11-22T08:48:24.177Z,16.90
2022-11-22T08:50:54.954Z,16.90
2022-11-22T08:53:24.390Z,16.80
2022-11-22T08:55:51.756Z,16.80
2022-11-22T08:58:18.887Z,16.80
2022-11-22T09:00:46.959Z,16.80
2022-11-22T09:03:13.754Z,16.80
2022-11-22T09:08:29.034Z,16.80
2022-11-22T09:11:05.916Z,17.00
2022-11-22T09:13:33.146Z,16.70
2022-11-22T09:16:04.288Z,16.70
2022-11-22T09:18:31.319Z,16.80
2022-11-22T09:21:01.998Z,16.70
2022-11-22T09:23:28.948Z,16.80
2022-11-22T09:25:58.793Z,16.70
2022-11-22T09:28:26.199Z,16.70
2022-11-22T09:31:02.973Z,16.70
2022-11-22T09:33:30.251Z,16.70
2022-11-22T09:36:04.624Z,16.70
2022-11-22T09:38:31.741Z,16.70
2022-11-22T09:40:58.882Z,16.70
2022-11-22T09:43:41.694Z,16.70
2022-11-22T09:46:12.727Z,16.80
2022-11-22T09:48:42.476Z,16.70
2022-11-22T09:51:24.414Z,16.70
2022-11-22T09:53:54.184Z,16.70
2022-11-22T09:56:23.889Z,16.70
2022-11-22T09:58:52.981Z,16.70
2022-11-22T10:01:22.970Z,16.50
2022-11-22T10:04:08.014Z,16.70
2022-11-22T10:06:35.936Z,16.70
2022-11-22T10:09:14.632Z,16.70
2022-11-22T10:12:00.130Z,16.70
2022-11-22T10:14:44.704Z,16.70
2022-11-22T10:17:23.860Z,16.70
2022-11-22T10:19:53.672Z,16.70
2022-11-22T10:22:20.485Z,16.70
2022-11-22T10:24:47.129Z,16.70
2022-11-22T10:27:15.135Z,16.70
2022-11-22T10:29:49.647Z,16.70
2022-11-22T10:32:48.820Z,16.70
2022-11-22T10:35:22.945Z,16.70
2022-11-22T10:37:55.618Z,16.70
2022-11-22T10:40:42.396Z,16.70
2022-11-22T10:43:12.367Z,16.70
2022-11-22T10:45:43.575Z,16.70
2022-11-22T10:48:31.302Z,16.70
2022-11-22T10:51:07.596Z,16.70
2022-11-22T10:53:53.317Z,16.70
2022-11-22T10:56:21.889Z,16.70
2022-11-22T10:58:55.868Z,16.70
2022-11-22T11:01:27.844Z,16.70
2022-11-22T11:03:57.743Z,16.70
2022-11-22T11:10:10.314Z,16.70
2022-11-22T11:12:38.834Z,16.70
2022-11-22T11:15:13.025Z,16.70
2022-11-22T11:17:42.182Z,16.70
2022-11-22T11:20:14.010Z,16.70
2022-11-22T11:25:30.560Z,16.70
2022-11-22T11:27:59.904Z,16.70
2022-11-22T11:30:26.684Z,16.70
2022-11-22T11:32:54.762Z,16.70
2022-11-22T11:35:22.715Z,16.70
2022-11-22T11:37:49.621Z,16.70
2022-11-22T11:40:26.084Z,16.70
2022-11-22T11:43:12.716Z,16.70
2022-11-22T11:45:41.624Z,16.70
2022-11-22T11:48:28.449Z,16.70
2022-11-22T11:51:14.566Z,16.70
2022-11-22T11:53:43.336Z,16.70
2022-11-22T11:56:32.153Z,16.60
2022-11-22T11:58:59.875Z,16.70
2022-11-22T12:01:32.209Z,16.70
2022-11-22T12:04:03.964Z,16.80
2022-11-22T12:06:31.649Z,16.80
2022-11-22T12:08:59.272Z,16.90
2022-11-22T12:11:48.725Z,16.90
2022-11-22T12:14:20.643Z,17.00
2022-11-22T12:16:48.181Z,16.40
2022-11-22T12:19:24.879Z,17.10
2022-11-22T12:22:48.099Z,17.00
2022-11-22T12:25:43.969Z,17.00
2022-11-22T12:28:18.027Z,17.00
2022-11-22T12:30:47.070Z,17.00
2022-11-22T12:33:22.306Z,17.00
2022-11-22T12:35:49.841Z,16.90
2022-11-22T12:38:18.491Z,16.90
2022-11-22T12:40:47.336Z,16.90
2022-11-22T12:43:18.162Z,16.90
2022-11-22T12:45:49.890Z,16.80
2022-11-22T12:48:18.934Z,16.80
2022-11-22T12:50:49.821Z,16.90
2022-11-22T12:53:19.905Z,16.90
2022-11-22T12:55:54.353Z,16.90
2022-11-22T12:58:24.329Z,16.90
2022-11-22T13:01:20.796Z,16.90
2022-11-22T13:03:50.652Z,16.90
2022-11-22T13:06:20.378Z,16.90
2022-11-22T13:08:55.543Z,16.90
2022-11-22T13:11:34.402Z,16.90
2022-11-22T13:14:21.225Z,16.90
2022-11-22T13:16:49.639Z,16.80
2022-11-22T13:19:17.173Z,16.80
2022-11-22T13:21:47.073Z,16.80
2022-11-22T13:24:13.720Z,16.80
2022-11-22T13:27:05.381Z,16.80
2022-11-22T13:29:33.617Z,16.80
2022-11-22T13:32:01.477Z,16.80
2022-11-22T13:34:28.695Z,16.80
2022-11-22T13:36:59.192Z,16.80
2022-11-22T13:39:28.714Z,16.80
2022-11-22T13:42:02.833Z,16.80
2022-11-22T13:44:33.241Z,16.80
2022-11-22T13:47:23.396Z,16.80
2022-11-22T13:49:50.823Z,16.80
2022-11-22T13:52:17.508Z,16.80
2022-11-22T13:54:47.273Z,16.80
2022-11-22T13:57:34.613Z,16.80
2022-11-22T14:00:16.841Z,16.80
2022-11-22T14:02:43.577Z,16.80
2022-11-22T14:05:21.089Z,16.80
2022-11-22T14:07:51.764Z,16.80
2022-11-22T14:10:30.216Z,16.80
2022-11-22T14:13:00.024Z,16.80
2022-11-22T14:15:45.656Z,16.90
2022-11-22T14:18:15.643Z,16.90
2022-11-22T14:20:57.384Z,17.00
2022-11-22T14:23:24.113Z,17.00
2022-11-22T14:26:16.410Z,17.10
2022-11-22T14:29:02.080Z,17.10
2022-11-22T14:31:30.487Z,17.10
2022-11-22T14:34:17.120Z,17.00
2022-11-22T14:36:44.297Z,17.00
2022-11-22T14:39:33.686Z,17.00
2022-11-22T14:42:00.627Z,17.00
2022-11-22T14:44:32.013Z,17.00
2022-11-22T14:47:03.629Z,16.90
2022-11-22T14:49:45.745Z,17.00
2022-11-22T14:52:18.174Z,16.90
2022-11-22T14:54:46.224Z,16.90
2022-11-22T14:57:18.589Z,16.90
2022-11-22T14:59:57.569Z,16.90
2022-11-22T15:02:43.049Z,16.90
2022-11-22T15:09:11.674Z,16.90
2022-11-22T15:09:15.079Z,16.90
2022-11-22T15:11:30.105Z,16.90
2022-11-22T15:14:03.019Z,16.90
2022-11-22T15:59:43.261Z,16.80
2022-11-22T16:02:12.358Z,16.80
2022-11-22T16:04:39.193Z,16.80
2022-11-22T16:07:06.738Z,16.80
2022-11-22T16:09:37.160Z,16.80
2022-11-22T16:12:05.036Z,16.80
2022-11-22T16:14:42.414Z,16.80
2022-11-22T16:17:24.492Z,16.80
2022-11-22T16:19:51.467Z,16.80
2022-11-22T16:22:28.379Z,16.80
2022-11-22T16:25:14.990Z,16.80
2022-11-22T16:27:46.296Z,16.80
2022-11-22T16:30:13.304Z,16.80
2022-11-22T16:32:40.030Z,16.80
2022-11-22T16:35:28.519Z,16.80
2022-11-22T16:37:56.416Z,16.80
2022-11-22T16:40:23.067Z,16.80
2022-11-22T16:42:49.713Z,16.80
2022-11-22T16:45:20.394Z,16.80
2022-11-22T16:47:54.602Z,16.80
2022-11-22T16:50:31.404Z,16.80
2022-11-22T16:53:02.547Z,16.80
2022-11-22T16:55:29.639Z,16.80
2022-11-22T16:57:56.359Z,16.80
2022-11-22T17:00:23.074Z,16.80
2022-11-22T17:02:49.752Z,16.80
2022-11-22T17:05:17.559Z,16.80
2022-11-22T17:07:44.386Z,16.80
2022-11-22T17:10:11.324Z,16.80
2022-11-22T17:12:38.195Z,16.80
2022-11-22T17:15:06.682Z,16.80
2022-11-22T17:17:33.334Z,16.80
2022-11-22T17:20:00.371Z,16.80
2022-11-22T17:22:27.100Z,16.80
2022-11-22T17:24:53.904Z,16.80
2022-11-22T17:27:20.597Z,16.80
2022-11-22T17:29:51.148Z,16.80
2022-11-22T17:32:18.199Z,16.80
2022-11-22T17:34:44.926Z,16.80
2022-11-22T17:37:12.412Z,16.80
2022-11-22T17:39:39.387Z,16.80
2022-11-22T17:42:06.136Z,16.80
2022-11-22T17:44:33.047Z,16.80
2022-11-22T17:46:59.750Z,16.80
2022-11-22T17:49:26.454Z,16.80
2022-11-22T17:51:53.204Z,16.80
2022-11-22T17:54:19.975Z,16.80
2022-11-22T17:56:46.949Z,16.80
2022-11-22T17:59:13.642Z,16.90
2022-11-22T18:01:40.336Z,16.90
2022-11-22T18:04:07.504Z,17.00
2022-11-22T18:06:34.221Z,17.10
2022-11-22T18:09:01.025Z,17.10
2022-11-22T18:11:27.781Z,17.10
2022-11-22T18:13:54.548Z,17.10
2022-11-22T18:16:22.301Z,17.00
2022-11-22T18:18:57.822Z,17.00
2022-11-22T18:21:26.192Z,17.00
2022-11-22T18:23:53.060Z,17.00
2022-11-22T18:31:54.292Z,17.00
2022-11-22T18:34:21.910Z,17.00
2022-11-22T18:37:04.668Z,17.00
2022-11-22T18:39:36.750Z,17.00
2022-11-22T18:42:08.313Z,16.90
2022-11-22T18:44:35.097Z,17.00
2022-11-22T18:47:01.887Z,16.90
2022-11-22T18:49:28.668Z,16.90
2022-11-22T18:51:55.869Z,16.90
2022-11-22T18:54:22.935Z,16.90
2022-11-22T18:56:50.379Z,16.90
2022-11-22T18:59:17.150Z,16.90
2022-11-22T19:01:43.933Z,16.90
2022-11-22T19:04:12.757Z,16.80
2022-11-22T19:06:40.706Z,16.90
2022-11-22T19:09:07.847Z,16.90
2022-11-22T19:11:35.434Z,16.80
2022-11-22T19:14:02.340Z,16.80
2022-11-22T19:16:30.370Z,16.80
2022-11-22T19:18:57.845Z,16.80
2022-11-22T19:21:26.130Z,16.90
2022-11-22T19:23:53.118Z,16.80
2022-11-22T19:26:20.886Z,16.80
2022-11-22T19:28:48.380Z,16.80
2022-11-22T19:31:16.526Z,16.80
2022-11-22T19:33:43.572Z,16.90
2022-11-22T19:36:14.478Z,16.90
2022-11-22T19:38:41.538Z,16.90
2022-11-22T19:41:09.037Z,16.90
2022-11-22T19:43:36.014Z,16.90
2022-11-22T19:46:03.069Z,16.90
2022-11-22T19:48:30.090Z,16.90
2022-11-22T19:50:56.904Z,16.90
2022-11-22T19:53:23.829Z,16.90
2022-11-22T19:55:50.571Z,17.00
2022-11-22T19:58:18.835Z,17.00
2022-11-22T20:00:45.678Z,17.10
2022-11-22T20:03:13.300Z,17.10
2022-11-22T20:05:41.663Z,17.10
2022-11-22T20:08:08.484Z,17.10
2022-11-22T20:10:35.486Z,17.10
2022-11-22T20:13:02.874Z,17.10
2022-11-22T20:15:30.479Z,17.10
2022-11-22T20:17:57.196Z,17.00
2022-11-22T20:20:23.958Z,17.00
2022-11-22T20:22:50.709Z,17.00
2022-11-22T20:25:17.490Z,17.00
2022-11-22T20:27:44.176Z,17.00
2022-11-22T20:30:11.456Z,17.00
2022-11-22T20:32:40.074Z,17.00
2022-11-22T20:35:09.925Z,17.00
2022-11-22T20:37:42.921Z,16.90
2022-11-22T20:40:17.798Z,16.90
2022-11-22T20:42:44.518Z,17.00
2022-11-22T20:45:11.321Z,16.90
2022-11-22T20:47:38.077Z,16.90
2022-11-22T20:50:05.009Z,16.90
2022-11-22T20:52:31.747Z,16.90
2022-11-22T20:55:04.650Z,16.90
2022-11-22T20:57:31.951Z,16.90
2022-11-22T20:59:58.685Z,16.90
2022-11-22T21:02:25.420Z,16.90
2022-11-22T21:04:52.155Z,16.90
2022-11-22T21:07:18.963Z,16.90
2022-11-22T21:09:45.680Z,16.90
2022-11-22T21:12:12.408Z,16.90
2022-11-22T21:14:39.098Z,16.90
2022-11-22T21:17:29.929Z,16.90
2022-11-22T21:19:52.553Z,16.90
2022-11-22T21:22:26.148Z,16.90
2022-11-22T21:24:57.004Z,16.90
2022-11-22T21:27:23.851Z,16.90
2022-11-22T21:29:50.644Z,16.90
2022-11-22T21:32:17.616Z,16.90
2022-11-22T21:34:44.287Z,16.90
2022-11-22T21:37:16.054Z,16.90
2022-11-22T21:39:45.500Z,16.90
2022-11-22T21:42:14.257Z,16.90
2022-11-22T21:44:40.996Z,16.90
2022-11-22T21:47:07.769Z,16.90
2022-11-22T21:49:34.515Z,16.90
2022-11-22T21:52:14.623Z,16.90
2022-11-22T21:54:41.543Z,16.90
2022-11-22T21:57:08.316Z,16.90
2022-11-22T21:59:35.777Z,16.90
2022-11-22T22:02:02.608Z,16.90
2022-11-22T22:04:29.412Z,16.90
2022-11-22T22:06:56.089Z,16.90
2022-11-22T22:09:22.822Z,16.90
2022-11-22T22:11:49.565Z,16.90
2022-11-22T22:14:16.330Z,16.90
2022-11-22T22:16:43.067Z,16.90
2022-11-22T22:19:10.082Z,16.90
2022-11-22T22:21:36.814Z,16.90
2022-11-22T22:24:04.022Z,16.90
2022-11-22T22:26:32.106Z,16.90
2022-11-22T22:28:58.817Z,16.90
2022-11-22T22:31:26.941Z,16.90
2022-11-22T22:33:54.536Z,16.90
2022-11-22T22:36:21.969Z,16.90
2022-11-22T22:38:48.813Z,16.90
2022-11-22T22:41:15.787Z,16.90
2022-11-22T22:43:44.116Z,16.90
2022-11-22T22:46:14.926Z,16.90
2022-11-22T22:48:41.964Z,16.90
2022-11-22T22:51:11.233Z,16.90
2022-11-22T22:53:37.919Z,16.80
2022-11-22T22:56:05.104Z,16.90
2022-11-22T22:58:31.845Z,16.80
2022-11-22T23:01:24.956Z,16.90
2022-11-22T23:03:53.306Z,16.90
2022-11-22T23:06:20.806Z,16.90
2022-11-22T23:08:48.699Z,16.80
2022-11-22T23:11:16.184Z,16.90
2022-11-22T23:13:43.673Z,16.90
2022-11-22T23:16:11.605Z,16.90
2022-11-22T23:18:39.361Z,16.80
2022-11-22T23:21:06.743Z,16.90
2022-11-22T23:23:33.916Z,16.90
2022-11-22T23:26:04.669Z,16.90
2022-11-22T23:28:31.409Z,16.90
2022-11-22T23:31:12.494Z,16.80
2022-11-22T23:33:39.566Z,16.90
2022-11-22T23:36:07.683Z,16.90
2022-11-22T23:38:34.666Z,16.90
2022-11-22T23:41:01.777Z,16.80
2022-11-22T23:43:28.629Z,16.80
2022-11-22T23:45:55.513Z,16.90
2022-11-22T23:48:22.238Z,16.90
2022-11-22T23:50:48.905Z,16.90
2022-11-22T23:53:15.648Z,16.90
2022-11-22T23:55:42.346Z,16.80
2022-11-22T23:58:09.091Z,16.90
